sensor_id;sensor_type;location;lat;lon;timestamp;P1;durP1;ratioP1;P2;durP2;ratioP2
928;SDS011;451;47.988;7.842;2023-07-20T00:05:42;5.63;;;3.90;;
928;SDS011;451;47.988;7.842;2023-07-20T00:14:47;4.90;;;4.30;;
928;SDS011;451;47.988;7.842;2023-07-20T00:23:50;4.73;;;4.33;;
928;SDS011;451;47.988;7.842;2023-07-20T00:32:54;6.07;;;3.87;;
928;SDS011;451;47.988;7.842;2023-07-20T00:41:58;5.70;;;4.20;;
928;SDS011;451;47.988;7.842;2023-07-20T00:51:03;5.30;;;4.57;;
928;SDS011;451;47.988;7.842;2023-07-20T01:00:07;5.40;;;4.90;;
928;SDS011;451;47.988;7.842;2023-07-20T01:09:13;9.23;;;4.03;;
928;SDS011;451;47.988;7.842;2023-07-20T01:18:19;6.27;;;4.60;;
928;SDS011;451;47.988;7.842;2023-07-20T01:27:29;5.77;;;4.13;;
928;SDS011;451;47.988;7.842;2023-07-20T01:36:55;5.27;;;4.00;;
928;SDS011;451;47.988;7.842;2023-07-20T01:45:59;5.63;;;4.30;;
928;SDS011;451;47.988;7.842;2023-07-20T01:55:05;5.83;;;4.30;;
928;SDS011;451;47.988;7.842;2023-07-20T02:04:09;6.53;;;3.90;;
928;SDS011;451;47.988;7.842;2023-07-20T02:13:14;4.27;;;3.80;;
928;SDS011;451;47.988;7.842;2023-07-20T02:22:17;4.27;;;3.80;;
928;SDS011;451;47.988;7.842;2023-07-20T02:31:22;5.80;;;4.10;;
928;SDS011;451;47.988;7.842;2023-07-20T02:40:25;4.83;;;4.43;;
928;SDS011;451;47.988;7.842;2023-07-20T02:49:30;4.33;;;4.00;;
928;SDS011;451;47.988;7.842;2023-07-20T02:58:33;4.17;;;3.77;;
928;SDS011;451;47.988;7.842;2023-07-20T03:07:39;4.53;;;4.20;;
928;SDS011;451;47.988;7.842;2023-07-20T03:16:45;4.67;;;4.10;;
928;SDS011;451;47.988;7.842;2023-07-20T03:25:50;5.90;;;4.80;;
928;SDS011;451;47.988;7.842;2023-07-20T03:34:56;5.50;;;4.87;;
928;SDS011;451;47.988;7.842;2023-07-20T03:44:01;4.40;;;4.10;;
928;SDS011;451;47.988;7.842;2023-07-20T03:53:04;5.17;;;4.67;;
928;SDS011;451;47.988;7.842;2023-07-20T04:02:09;6.73;;;4.10;;
928;SDS011;451;47.988;7.842;2023-07-20T04:11:12;5.40;;;4.90;;
928;SDS011;451;47.988;7.842;2023-07-20T04:20:17;4.57;;;4.17;;
928;SDS011;451;47.988;7.842;2023-07-20T04:29:21;5.60;;;5.10;;
928;SDS011;451;47.988;7.842;2023-07-20T04:38:25;5.73;;;5.10;;
928;SDS011;451;47.988;7.842;2023-07-20T04:47:40;5.17;;;4.77;;
928;SDS011;451;47.988;7.842;2023-07-20T04:56:45;5.43;;;5.03;;
928;SDS011;451;47.988;7.842;2023-07-20T05:05:49;5.77;;;4.63;;
928;SDS011;451;47.988;7.842;2023-07-20T05:14:54;7.23;;;4.90;;
928;SDS011;451;47.988;7.842;2023-07-20T05:23:57;5.20;;;4.70;;
928;SDS011;451;47.988;7.842;2023-07-20T05:33:03;5.90;;;4.73;;
928;SDS011;451;47.988;7.842;2023-07-20T05:42:06;4.63;;;4.23;;
928;SDS011;451;47.988;7.842;2023-07-20T05:51:10;7.07;;;5.67;;
928;SDS011;451;47.988;7.842;2023-07-20T06:00:14;6.15;;;5.40;;
928;SDS011;451;47.988;7.842;2023-07-20T06:09:19;6.10;;;5.40;;
928;SDS011;451;47.988;7.842;2023-07-20T06:18:22;5.83;;;5.33;;
928;SDS011;451;47.988;7.842;2023-07-20T06:27:27;6.87;;;5.47;;
928;SDS011;451;47.988;7.842;2023-07-20T06:36:30;5.87;;;4.80;;
928;SDS011;451;47.988;7.842;2023-07-20T06:45:34;5.90;;;5.40;;
928;SDS011;451;47.988;7.842;2023-07-20T06:54:37;4.63;;;4.23;;
928;SDS011;451;47.988;7.842;2023-07-20T07:03:42;5.10;;;4.60;;
928;SDS011;451;47.988;7.842;2023-07-20T07:12:46;5.63;;;5.13;;
928;SDS011;451;47.988;7.842;2023-07-20T07:21:51;7.73;;;4.80;;
928;SDS011;451;47.988;7.842;2023-07-20T07:30:54;5.30;;;4.80;;
928;SDS011;451;47.988;7.842;2023-07-20T07:39:59;6.80;;;5.13;;
928;SDS011;451;47.988;7.842;2023-07-20T07:49:03;5.20;;;4.70;;
928;SDS011;451;47.988;7.842;2023-07-20T07:58:07;4.90;;;4.40;;
928;SDS011;451;47.988;7.842;2023-07-20T08:07:11;5.80;;;4.73;;
928;SDS011;451;47.988;7.842;2023-07-20T08:16:16;5.20;;;4.23;;
928;SDS011;451;47.988;7.842;2023-07-20T08:25:19;8.20;;;4.10;;
928;SDS011;451;47.988;7.842;2023-07-20T08:34:23;4.80;;;4.37;;
928;SDS011;451;47.988;7.842;2023-07-20T08:43:26;6.10;;;4.33;;
928;SDS011;451;47.988;7.842;2023-07-20T08:52:32;5.40;;;5.00;;
928;SDS011;451;47.988;7.842;2023-07-20T09:01:36;5.43;;;3.83;;
928;SDS011;451;47.988;7.842;2023-07-20T09:10:44;4.50;;;3.30;;
928;SDS011;451;47.988;7.842;2023-07-20T09:19:47;5.87;;;3.30;;
928;SDS011;451;47.988;7.842;2023-07-20T09:28:52;3.23;;;3.03;;
928;SDS011;451;47.988;7.842;2023-07-20T09:37:57;5.43;;;3.47;;
928;SDS011;451;47.988;7.842;2023-07-20T09:47:03;3.60;;;3.30;;
928;SDS011;451;47.988;7.842;2023-07-20T09:56:06;4.60;;;3.83;;
928;SDS011;451;47.988;7.842;2023-07-20T10:05:13;4.90;;;3.50;;
928;SDS011;451;47.988;7.842;2023-07-20T10:14:19;3.17;;;2.97;;
928;SDS011;451;47.988;7.842;2023-07-20T10:23:24;3.93;;;3.67;;
928;SDS011;451;47.988;7.842;2023-07-20T10:32:30;6.63;;;3.93;;
928;SDS011;451;47.988;7.842;2023-07-20T10:41:37;4.37;;;3.77;;
928;SDS011;451;47.988;7.842;2023-07-20T10:50:42;4.07;;;3.30;;
928;SDS011;451;47.988;7.842;2023-07-20T10:59:47;3.63;;;3.30;;
928;SDS011;451;47.988;7.842;2023-07-20T11:08:54;3.17;;;3.00;;
928;SDS011;451;47.988;7.842;2023-07-20T11:18:12;4.27;;;3.50;;
928;SDS011;451;47.988;7.842;2023-07-20T11:27:15;3.63;;;3.27;;
928;SDS011;451;47.988;7.842;2023-07-20T11:36:21;3.20;;;3.00;;
928;SDS011;451;47.988;7.842;2023-07-20T11:45:25;4.20;;;3.07;;
928;SDS011;451;47.988;7.842;2023-07-20T11:54:30;3.57;;;3.27;;
928;SDS011;451;47.988;7.842;2023-07-20T12:03:33;6.33;;;3.27;;
928;SDS011;451;47.988;7.842;2023-07-20T12:12:38;3.63;;;3.30;;
928;SDS011;451;47.988;7.842;2023-07-20T12:21:42;4.13;;;3.40;;
928;SDS011;451;47.988;7.842;2023-07-20T12:30:48;4.80;;;4.20;;
928;SDS011;451;47.988;7.842;2023-07-20T12:39:57;3.67;;;3.30;;
928;SDS011;451;47.988;7.842;2023-07-20T12:49:02;4.10;;;3.80;;
928;SDS011;451;47.988;7.842;2023-07-20T12:58:06;3.67;;;3.33;;
928;SDS011;451;47.988;7.842;2023-07-20T13:07:10;3.97;;;3.27;;
928;SDS011;451;47.988;7.842;2023-07-20T13:16:14;3.37;;;3.17;;
928;SDS011;451;47.988;7.842;2023-07-20T13:25:19;2.93;;;2.73;;
928;SDS011;451;47.988;7.842;2023-07-20T13:34:22;3.30;;;3.10;;
928;SDS011;451;47.988;7.842;2023-07-20T13:43:27;3.40;;;3.10;;
928;SDS011;451;47.988;7.842;2023-07-20T13:52:30;5.00;;;3.43;;
928;SDS011;451;47.988;7.842;2023-07-20T14:01:35;3.77;;;3.47;;
928;SDS011;451;47.988;7.842;2023-07-20T14:10:38;3.83;;;3.27;;
928;SDS011;451;47.988;7.842;2023-07-20T14:19:43;5.20;;;3.50;;
928;SDS011;451;47.988;7.842;2023-07-20T14:28:46;3.87;;;3.57;;
928;SDS011;451;47.988;7.842;2023-07-20T14:37:50;3.60;;;3.30;;
928;SDS011;451;47.988;7.842;2023-07-20T14:46:53;3.43;;;3.23;;
928;SDS011;451;47.988;7.842;2023-07-20T14:56:01;3.17;;;2.90;;
928;SDS011;451;47.988;7.842;2023-07-20T15:05:06;3.27;;;2.97;;
928;SDS011;451;47.988;7.842;2023-07-20T15:14:11;3.60;;;3.10;;
928;SDS011;451;47.988;7.842;2023-07-20T15:23:14;3.30;;;3.10;;
928;SDS011;451;47.988;7.842;2023-07-20T15:32:19;3.30;;;3.00;;
928;SDS011;451;47.988;7.842;2023-07-20T15:41:22;3.23;;;3.00;;
928;SDS011;451;47.988;7.842;2023-07-20T15:50:27;3.20;;;2.87;;
928;SDS011;451;47.988;7.842;2023-07-20T15:59:30;3.90;;;3.60;;
928;SDS011;451;47.988;7.842;2023-07-20T16:08:34;3.43;;;3.13;;
928;SDS011;451;47.988;7.842;2023-07-20T16:17:38;3.20;;;3.00;;
928;SDS011;451;47.988;7.842;2023-07-20T16:26:42;3.53;;;3.10;;
928;SDS011;451;47.988;7.842;2023-07-20T16:35:45;3.13;;;2.77;;
928;SDS011;451;47.988;7.842;2023-07-20T16:44:51;4.40;;;3.10;;
928;SDS011;451;47.988;7.842;2023-07-20T16:53:54;5.10;;;3.20;;
928;SDS011;451;47.988;7.842;2023-07-20T17:02:58;3.57;;;3.27;;
928;SDS011;451;47.988;7.842;2023-07-20T17:12:05;5.80;;;3.57;;
928;SDS011;451;47.988;7.842;2023-07-20T17:21:12;3.30;;;2.93;;
928;SDS011;451;47.988;7.842;2023-07-20T17:30:17;4.13;;;3.33;;
928;SDS011;451;47.988;7.842;2023-07-20T17:39:22;5.37;;;3.50;;
928;SDS011;451;47.988;7.842;2023-07-20T17:48:26;3.75;;;2.85;;
928;SDS011;451;47.988;7.842;2023-07-20T17:57:31;4.20;;;3.00;;
928;SDS011;451;47.988;7.842;2023-07-20T18:06:34;3.53;;;3.00;;
928;SDS011;451;47.988;7.842;2023-07-20T18:15:39;2.97;;;2.87;;
928;SDS011;451;47.988;7.842;2023-07-20T18:24:43;4.70;;;2.80;;
928;SDS011;451;47.988;7.842;2023-07-20T18:33:47;3.20;;;3.00;;
928;SDS011;451;47.988;7.842;2023-07-20T18:42:51;8.33;;;2.70;;
928;SDS011;451;47.988;7.842;2023-07-20T18:51:55;3.60;;;3.30;;
928;SDS011;451;47.988;7.842;2023-07-20T19:00:59;3.33;;;3.03;;
928;SDS011;451;47.988;7.842;2023-07-20T19:10:04;3.70;;;3.40;;
928;SDS011;451;47.988;7.842;2023-07-20T19:19:10;2.90;;;2.70;;
928;SDS011;451;47.988;7.842;2023-07-20T19:28:14;3.63;;;3.43;;
928;SDS011;451;47.988;7.842;2023-07-20T19:37:18;3.50;;;3.30;;
928;SDS011;451;47.988;7.842;2023-07-20T19:46:22;3.87;;;2.90;;
928;SDS011;451;47.988;7.842;2023-07-20T19:55:25;3.50;;;3.20;;
928;SDS011;451;47.988;7.842;2023-07-20T20:04:30;5.53;;;4.60;;
928;SDS011;451;47.988;7.842;2023-07-20T20:13:33;3.77;;;3.10;;
928;SDS011;451;47.988;7.842;2023-07-20T20:22:38;3.20;;;3.00;;
928;SDS011;451;47.988;7.842;2023-07-20T20:31:41;3.40;;;3.10;;
928;SDS011;451;47.988;7.842;2023-07-20T20:40:46;3.37;;;3.17;;
928;SDS011;451;47.988;7.842;2023-07-20T20:49:50;4.27;;;3.97;;
928;SDS011;451;47.988;7.842;2023-07-20T20:58:59;4.20;;;3.90;;
928;SDS011;451;47.988;7.842;2023-07-20T21:08:02;3.90;;;3.63;;
928;SDS011;451;47.988;7.842;2023-07-20T21:17:07;5.10;;;4.70;;
928;SDS011;451;47.988;7.842;2023-07-20T21:26:10;3.93;;;3.73;;
928;SDS011;451;47.988;7.842;2023-07-20T21:35:18;4.40;;;4.00;;
928;SDS011;451;47.988;7.842;2023-07-20T21:44:23;5.33;;;4.83;;
928;SDS011;451;47.988;7.842;2023-07-20T21:53:28;6.50;;;4.20;;
928;SDS011;451;47.988;7.842;2023-07-20T22:02:31;4.60;;;4.20;;
928;SDS011;451;47.988;7.842;2023-07-20T22:11:36;4.17;;;3.87;;
928;SDS011;451;47.988;7.842;2023-07-20T22:20:41;4.97;;;4.57;;
928;SDS011;451;47.988;7.842;2023-07-20T22:29:45;6.17;;;4.47;;
928;SDS011;451;47.988;7.842;2023-07-20T22:38:49;4.80;;;4.40;;
928;SDS011;451;47.988;7.842;2023-07-20T22:47:54;4.67;;;4.27;;
928;SDS011;451;47.988;7.842;2023-07-20T22:56:57;4.30;;;4.00;;
928;SDS011;451;47.988;7.842;2023-07-20T23:06:02;5.03;;;4.60;;
928;SDS011;451;47.988;7.842;2023-07-20T23:15:06;4.00;;;3.70;;
928;SDS011;451;47.988;7.842;2023-07-20T23:24:12;9.00;;;5.80;;
928;SDS011;451;47.988;7.842;2023-07-20T23:33:16;4.30;;;4.03;;
928;SDS011;451;47.988;7.842;2023-07-20T23:42:21;3.50;;;3.27;;
928;SDS011;451;47.988;7.842;2023-07-20T23:51:25;5.10;;;4.10;;
